Flugplanung PDF Drucken E-Mail

 

 

Für die Flugplanung steht Ihnen unser Flugvorbereitungsraum mit Verbindung zu PC-met und AIS (über http://www.dfs-ais.de) (Wetter, Flugplan, Notams) zur Verfügung.

Telefonisch ist AIS über 069–78072-500, per Fax über 069–78072-505 zu erreichen.

Aktuelle Notams können Sie über den Link http://www.dfs-vfrebulletin.de/ abfragen.

Ein ausgefülltes Musterformular stellen wir Ihnen bald zur Verfügung.

Ein Blankoformular steht hier zum Download bereit.

Ihren ausgefüllten IFR-Flugplan können Sie über mehrere Tools vor Aufgabe auf CFMO-Konformität prüfen. Sie ersparen sich damit Überraschungen beim 'initial call' bzw. beim 'copy':


Sie können Ihren Flugplan auch telefonisch bei AIS aufgeben oder direkt über den PC im Flugvorbereitungsraum bei AIS ausfüllen und mit Ihren Stammdaten für zukünftige Verwendung abspeichern.

 

Bei der Aufgabe und/oder Schließung von Flugplänen hilft Ihnen gerne die Towerbesatzung.

 

 

 

Irrtum vorbehalten.

Die Informationen auf dieser Seite ersetzen nicht die gesetzlich vorgeschriebene Flugvorbereitung.





 

Zufallsbild

Aktuelle Termine

Mo Di Mi Do Fr Sa So
29 30 31 1 2 3 4
5 6 7 8 9 10 11
12 13 14 15 16 17 18
19 20 21 22 23 24 25
26 27 28 29 30 1 2

Pilotenwetter

[source: ADDS]
METAR
EDDH 271520Z VRB04KT CAVOK 20/08 Q1010 NOSIG =
TAF
TAF EDDH 271100Z 2712/2818 10005KT 9999 FEW030 TEMPO 2722/2818 SHRA BKN025CB BECMG 2806/2809 10010KT PROB30 TEMPO 2810/2818 10015G25KT 4000 TSRA BKN014CB =